SPROY EPKK-EPRZ
Flight info
| Callsign | SPROY |
|---|---|
| Flight time | 0h 46m |
| Altitude | 6000 |
| Route | LUXAR |
| Aircraft | BE58/L-SDFGRY/C |
Departure
| Time | 2026-04-21 19:18 |
|---|---|
| Airport | Kraków John Paul II International Airport (EPKK) |
Arrival
| Time | 2026-04-21 20:05 |
|---|---|
| Airport | Rzeszów-Jasionka Airport (EPRZ) |
| Time | Latitude | Longitude | Altitude | Speed | Heading |
|---|---|---|---|---|---|
| 2026-04-21 18:47 | 50.07693 | 19.80077 | 784 ft | 0 kts | 348° |
| 2026-04-21 19:10 | 50.07761 | 19.80179 | 785 ft | 23 kts | 83° |
| 2026-04-21 19:10 | 50.07850 | 19.80333 | 785 ft | 10 kts | 352° |
| 2026-04-21 19:11 | 50.07853 | 19.80333 | 785 ft | 0 kts | 354° |
| 2026-04-21 19:17 | 50.07858 | 19.80332 | 785 ft | 8 kts | 351° |
| 2026-04-21 19:17 | 50.07996 | 19.80253 | 784 ft | 29 kts | 311° |
| 2026-04-21 19:17 | 50.08003 | 19.80130 | 785 ft | 0 kts | 255° |
| 2026-04-21 19:18 | 50.07961 | 19.79816 | 784 ft | 82 kts | 254° |
| 2026-04-21 19:18 | 50.07765 | 19.78599 | 952 ft | 136 kts | 257° |
| 2026-04-21 19:18 | 50.07590 | 19.77150 | 1491 ft | 134 kts | 264° |
| 2026-04-21 19:19 | 50.07427 | 19.75667 | 2116 ft | 143 kts | 259° |
| 2026-04-21 19:19 | 50.07109 | 19.74128 | 2607 ft | 157 kts | 255° |
| 2026-04-21 19:19 | 50.06752 | 19.72481 | 3041 ft | 164 kts | 255° |
| 2026-04-21 19:19 | 50.06406 | 19.70844 | 3657 ft | 158 kts | 256° |
| 2026-04-21 19:20 | 50.06116 | 19.69256 | 4325 ft | 149 kts | 262° |
| 2026-04-21 19:20 | 50.05919 | 19.67682 | 4966 ft | 143 kts | 265° |
| 2026-04-21 19:20 | 50.05615 | 19.66213 | 5536 ft | 152 kts | 239° |
| 2026-04-21 19:20 | 50.04687 | 19.65370 | 5818 ft | 171 kts | 181° |
| 2026-04-21 19:21 | 50.03625 | 19.66153 | 5912 ft | 176 kts | 127° |
| 2026-04-21 19:21 | 50.02977 | 19.67781 | 5910 ft | 175 kts | 108° |
| 2026-04-21 19:21 | 50.02732 | 19.69580 | 5939 ft | 170 kts | 94° |
| 2026-04-21 19:21 | 50.02583 | 19.71413 | 5948 ft | 172 kts | 91° |
| 2026-04-21 19:22 | 50.02481 | 19.73242 | 5931 ft | 172 kts | 90° |
| 2026-04-21 19:22 | 50.02394 | 19.75096 | 5943 ft | 171 kts | 89° |
| 2026-04-21 19:22 | 50.02358 | 19.76943 | 5953 ft | 171 kts | 88° |
| 2026-04-21 19:22 | 50.02345 | 19.78799 | 5913 ft | 172 kts | 87° |
| 2026-04-21 19:23 | 50.02302 | 19.80659 | 5908 ft | 172 kts | 89° |
| 2026-04-21 19:23 | 50.02231 | 19.82522 | 5870 ft | 174 kts | 90° |
| 2026-04-21 19:23 | 50.02119 | 19.84380 | 5896 ft | 173 kts | 95° |
| 2026-04-21 19:23 | 50.01908 | 19.86234 | 5835 ft | 175 kts | 95° |
| 2026-04-21 19:24 | 50.01758 | 19.88088 | 5887 ft | 171 kts | 91° |
| 2026-04-21 19:24 | 50.01655 | 19.89923 | 5905 ft | 171 kts | 90° |
| 2026-04-21 19:24 | 50.01569 | 19.91768 | 5894 ft | 172 kts | 90° |
| 2026-04-21 19:24 | 50.01450 | 19.93602 | 5871 ft | 173 kts | 93° |
| 2026-04-21 19:25 | 50.01310 | 19.95455 | 5891 ft | 172 kts | 92° |
| 2026-04-21 19:25 | 50.01188 | 19.97297 | 5899 ft | 171 kts | 92° |
| 2026-04-21 19:25 | 50.01068 | 19.99147 | 5887 ft | 173 kts | 91° |
| 2026-04-21 19:25 | 50.00949 | 20.00994 | 5932 ft | 171 kts | 92° |
| 2026-04-21 19:26 | 50.00823 | 20.02819 | 6117 ft | 166 kts | 91° |
| 2026-04-21 19:26 | 50.00725 | 20.04562 | 6558 ft | 159 kts | 90° |
| 2026-04-21 19:26 | 50.00645 | 20.06265 | 6955 ft | 157 kts | 90° |
| 2026-04-21 19:26 | 50.00565 | 20.07970 | 7268 ft | 160 kts | 91° |
| 2026-04-21 19:27 | 50.00439 | 20.09690 | 7602 ft | 160 kts | 94° |
| 2026-04-21 19:27 | 50.00289 | 20.11391 | 7964 ft | 158 kts | 92° |
| 2026-04-21 19:27 | 50.00175 | 20.13053 | 8299 ft | 157 kts | 92° |
| 2026-04-21 19:27 | 50.00022 | 20.14749 | 8593 ft | 157 kts | 94° |
| 2026-04-21 19:28 | 49.99865 | 20.16430 | 8864 ft | 159 kts | 95° |
| 2026-04-21 19:28 | 49.99642 | 20.18087 | 9248 ft | 153 kts | 101° |
| 2026-04-21 19:28 | 49.99382 | 20.19651 | 9626 ft | 148 kts | 98° |
| 2026-04-21 19:28 | 49.99268 | 20.21186 | 9970 ft | 144 kts | 84° |
| 2026-04-21 19:29 | 49.99315 | 20.22836 | 9941 ft | 158 kts | 83° |
| 2026-04-21 19:29 | 49.99301 | 20.24584 | 9892 ft | 165 kts | 90° |
| 2026-04-21 19:29 | 49.99219 | 20.26357 | 9993 ft | 162 kts | 92° |
| 2026-04-21 19:29 | 49.99106 | 20.28080 | 10078 ft | 161 kts | 92° |
| 2026-04-21 19:30 | 49.98976 | 20.29841 | 10030 ft | 165 kts | 92° |
| 2026-04-21 19:30 | 49.98861 | 20.31616 | 10051 ft | 164 kts | 91° |
| 2026-04-21 19:30 | 49.98767 | 20.33364 | 10051 ft | 165 kts | 91° |
| 2026-04-21 19:30 | 49.98674 | 20.35148 | 10045 ft | 166 kts | 91° |
| 2026-04-21 19:31 | 49.98545 | 20.36944 | 10006 ft | 168 kts | 94° |
| 2026-04-21 19:31 | 49.98399 | 20.38754 | 9982 ft | 169 kts | 92° |
| 2026-04-21 19:31 | 49.98280 | 20.40563 | 9979 ft | 168 kts | 92° |
| 2026-04-21 19:31 | 49.98148 | 20.42375 | 9947 ft | 169 kts | 94° |
| 2026-04-21 19:32 | 49.98002 | 20.44187 | 9917 ft | 170 kts | 93° |
| 2026-04-21 19:32 | 49.97851 | 20.46017 | 9884 ft | 171 kts | 93° |
| 2026-04-21 19:32 | 49.97684 | 20.47824 | 9962 ft | 169 kts | 94° |
| 2026-04-21 19:32 | 49.97498 | 20.49621 | 10075 ft | 167 kts | 95° |
| 2026-04-21 19:33 | 49.97369 | 20.50807 | 10101 ft | 168 kts | 95° |
| 2026-04-21 19:33 | 49.97093 | 20.53163 | 10118 ft | 171 kts | 95° |
| 2026-04-21 19:33 | 49.96950 | 20.55050 | 9926 ft | 179 kts | 91° |
| 2026-04-21 19:33 | 49.96837 | 20.56943 | 9969 ft | 174 kts | 92° |
| 2026-04-21 19:34 | 49.96678 | 20.58817 | 9878 ft | 178 kts | 95° |
| 2026-04-21 19:34 | 49.96461 | 20.60700 | 9926 ft | 173 kts | 96° |
| 2026-04-21 19:34 | 49.96255 | 20.62525 | 9979 ft | 171 kts | 94° |
| 2026-04-21 19:34 | 49.96094 | 20.64342 | 10040 ft | 169 kts | 93° |
| 2026-04-21 19:35 | 49.95960 | 20.66164 | 10044 ft | 170 kts | 91° |
| 2026-04-21 19:35 | 49.95779 | 20.69830 | 10051 ft | 171 kts | 90° |
| 2026-04-21 19:35 | 49.95675 | 20.71686 | 9971 ft | 175 kts | 91° |
| 2026-04-21 19:36 | 49.95586 | 20.73574 | 9925 ft | 175 kts | 90° |
| 2026-04-21 19:36 | 49.95501 | 20.75423 | 9933 ft | 173 kts | 90° |
| 2026-04-21 19:36 | 49.95396 | 20.77288 | 9917 ft | 174 kts | 91° |
| 2026-04-21 19:36 | 49.95266 | 20.79158 | 9894 ft | 175 kts | 93° |
| 2026-04-21 19:37 | 49.95114 | 20.81021 | 9926 ft | 172 kts | 91° |
| 2026-04-21 19:37 | 49.95013 | 20.82875 | 9912 ft | 173 kts | 90° |
| 2026-04-21 19:37 | 49.94926 | 20.84739 | 9889 ft | 173 kts | 90° |
| 2026-04-21 19:37 | 49.94814 | 20.86600 | 9890 ft | 173 kts | 91° |
| 2026-04-21 19:38 | 49.94704 | 20.88459 | 9885 ft | 173 kts | 91° |
| 2026-04-21 19:38 | 49.94613 | 20.90320 | 9888 ft | 172 kts | 90° |
| 2026-04-21 19:38 | 49.94551 | 20.91546 | 9903 ft | 173 kts | 90° |
| 2026-04-21 19:38 | 49.94400 | 20.94050 | 9920 ft | 174 kts | 90° |
| 2026-04-21 19:39 | 49.94375 | 20.95903 | 9965 ft | 171 kts | 81° |
| 2026-04-21 19:39 | 49.94510 | 20.97729 | 9973 ft | 171 kts | 78° |
| 2026-04-21 19:39 | 49.94645 | 20.99554 | 9951 ft | 173 kts | 79° |
| 2026-04-21 19:39 | 49.94759 | 21.01392 | 10005 ft | 171 kts | 81° |
| 2026-04-21 19:40 | 49.94844 | 21.03242 | 10009 ft | 171 kts | 81° |
| 2026-04-21 19:40 | 49.94933 | 21.05094 | 9989 ft | 173 kts | 81° |
| 2026-04-21 19:40 | 49.95024 | 21.06957 | 9972 ft | 173 kts | 81° |
| 2026-04-21 19:40 | 49.95099 | 21.08829 | 9961 ft | 174 kts | 82° |
| 2026-04-21 19:41 | 49.95174 | 21.10692 | 9981 ft | 172 kts | 80° |
| 2026-04-21 19:41 | 49.95286 | 21.12534 | 9990 ft | 172 kts | 79° |
| 2026-04-21 19:41 | 49.95401 | 21.14387 | 9971 ft | 172 kts | 79° |
| 2026-04-21 19:41 | 49.95538 | 21.16228 | 9976 ft | 172 kts | 78° |
| 2026-04-21 19:42 | 49.95691 | 21.18066 | 9982 ft | 172 kts | 78° |
| 2026-04-21 19:42 | 49.95826 | 21.19894 | 9947 ft | 173 kts | 77° |
| 2026-04-21 19:42 | 49.95996 | 21.21722 | 9981 ft | 171 kts | 77° |
| 2026-04-21 19:42 | 49.96170 | 21.23540 | 10022 ft | 169 kts | 76° |
| 2026-04-21 19:43 | 49.96351 | 21.25331 | 10079 ft | 168 kts | 76° |
| 2026-04-21 19:43 | 49.96601 | 21.27089 | 10090 ft | 166 kts | 65° |
| 2026-04-21 19:43 | 49.96963 | 21.28803 | 10060 ft | 170 kts | 73° |
| 2026-04-21 19:43 | 49.97134 | 21.30636 | 10029 ft | 173 kts | 79° |
| 2026-04-21 19:44 | 49.97263 | 21.32492 | 10004 ft | 173 kts | 79° |
| 2026-04-21 19:44 | 49.97394 | 21.34350 | 9979 ft | 173 kts | 78° |
| 2026-04-21 19:44 | 49.97527 | 21.36210 | 9964 ft | 173 kts | 78° |
| 2026-04-21 19:44 | 49.97658 | 21.38039 | 9993 ft | 172 kts | 78° |
| 2026-04-21 19:45 | 49.97793 | 21.39889 | 9863 ft | 177 kts | 79° |
| 2026-04-21 19:45 | 49.97930 | 21.41811 | 9731 ft | 180 kts | 79° |
| 2026-04-21 19:45 | 49.98068 | 21.43760 | 9607 ft | 182 kts | 78° |
| 2026-04-21 19:45 | 49.98209 | 21.45724 | 9472 ft | 184 kts | 78° |
| 2026-04-21 19:46 | 49.98350 | 21.47704 | 9344 ft | 185 kts | 78° |
| 2026-04-21 19:46 | 49.98490 | 21.49695 | 9212 ft | 186 kts | 78° |
| 2026-04-21 19:46 | 49.98634 | 21.51692 | 9080 ft | 187 kts | 79° |
| 2026-04-21 19:46 | 49.98773 | 21.53705 | 8946 ft | 188 kts | 79° |
| 2026-04-21 19:47 | 49.98915 | 21.55721 | 8811 ft | 188 kts | 79° |
| 2026-04-21 19:47 | 49.99057 | 21.57741 | 8673 ft | 188 kts | 79° |
| 2026-04-21 19:47 | 49.99198 | 21.59734 | 8544 ft | 189 kts | 79° |
| 2026-04-21 19:47 | 49.99340 | 21.61767 | 8411 ft | 190 kts | 79° |
| 2026-04-21 19:48 | 49.99482 | 21.63810 | 8280 ft | 191 kts | 79° |
| 2026-04-21 19:48 | 49.99625 | 21.65863 | 8149 ft | 192 kts | 80° |
| 2026-04-21 19:48 | 49.99769 | 21.67930 | 8020 ft | 192 kts | 80° |
| 2026-04-21 19:48 | 49.99909 | 21.69975 | 8009 ft | 189 kts | 80° |
| 2026-04-21 19:49 | 50.00032 | 21.72003 | 8009 ft | 188 kts | 82° |
| 2026-04-21 19:49 | 50.00099 | 21.74034 | 8005 ft | 188 kts | 83° |
| 2026-04-21 19:49 | 50.00170 | 21.76058 | 8003 ft | 187 kts | 82° |
| 2026-04-21 19:49 | 50.00247 | 21.78081 | 8000 ft | 187 kts | 82° |
| 2026-04-21 19:50 | 50.00315 | 21.79410 | 7998 ft | 186 kts | 79° |
| 2026-04-21 19:50 | 50.00548 | 21.82095 | 7893 ft | 190 kts | 78° |
| 2026-04-21 19:50 | 50.00708 | 21.84111 | 7761 ft | 185 kts | 79° |
| 2026-04-21 19:50 | 50.00860 | 21.86078 | 7625 ft | 182 kts | 79° |
| 2026-04-21 19:51 | 50.01006 | 21.87997 | 7490 ft | 181 kts | 79° |
| 2026-04-21 19:51 | 50.01155 | 21.89931 | 7358 ft | 180 kts | 79° |
| 2026-04-21 19:51 | 50.01302 | 21.91860 | 7227 ft | 180 kts | 79° |
| 2026-04-21 19:51 | 50.01449 | 21.93788 | 7098 ft | 180 kts | 79° |
| 2026-04-21 19:52 | 50.01594 | 21.95708 | 6984 ft | 178 kts | 80° |
| 2026-04-21 19:52 | 50.01739 | 21.97623 | 6857 ft | 178 kts | 80° |
| 2026-04-21 19:52 | 50.01884 | 21.99539 | 6732 ft | 179 kts | 80° |
| 2026-04-21 19:52 | 50.02029 | 22.01458 | 6606 ft | 179 kts | 80° |
| 2026-04-21 19:53 | 50.02163 | 22.03351 | 6480 ft | 179 kts | 83° |
| 2026-04-21 19:53 | 50.02169 | 22.05290 | 6350 ft | 180 kts | 86° |
| 2026-04-21 19:53 | 50.02170 | 22.07236 | 6215 ft | 180 kts | 86° |
| 2026-04-21 19:53 | 50.02175 | 22.09183 | 6086 ft | 180 kts | 86° |
| 2026-04-21 19:54 | 50.02181 | 22.11133 | 5953 ft | 181 kts | 86° |
| 2026-04-21 19:54 | 50.02186 | 22.13086 | 5822 ft | 181 kts | 86° |
| 2026-04-21 19:54 | 50.02189 | 22.15039 | 5690 ft | 181 kts | 86° |
| 2026-04-21 19:54 | 50.02196 | 22.16995 | 5557 ft | 181 kts | 86° |
| 2026-04-21 19:55 | 50.02196 | 22.18923 | 5430 ft | 181 kts | 86° |
| 2026-04-21 19:55 | 50.02200 | 22.20876 | 5320 ft | 180 kts | 86° |
| 2026-04-21 19:55 | 50.02203 | 22.22838 | 5114 ft | 184 kts | 86° |
| 2026-04-21 19:55 | 50.02175 | 22.24845 | 4869 ft | 187 kts | 89° |
| 2026-04-21 19:56 | 50.02123 | 22.26864 | 4622 ft | 188 kts | 89° |
| 2026-04-21 19:56 | 50.02068 | 22.28893 | 4375 ft | 188 kts | 89° |
| 2026-04-21 19:56 | 50.02011 | 22.30865 | 4141 ft | 178 kts | 89° |
| 2026-04-21 19:56 | 50.02189 | 22.32598 | 3911 ft | 169 kts | 60° |
| 2026-04-21 19:57 | 50.02961 | 22.33843 | 3827 ft | 157 kts | 29° |
| 2026-04-21 19:57 | 50.03918 | 22.34631 | 3734 ft | 154 kts | 27° |
| 2026-04-21 19:57 | 50.04844 | 22.35436 | 3617 ft | 155 kts | 29° |
| 2026-04-21 19:57 | 50.05812 | 22.36229 | 3351 ft | 161 kts | 20° |
| 2026-04-21 19:58 | 50.06878 | 22.36642 | 3355 ft | 151 kts | 12° |
| 2026-04-21 19:58 | 50.07900 | 22.36962 | 3327 ft | 150 kts | 11° |
| 2026-04-21 19:58 | 50.08934 | 22.37059 | 3369 ft | 147 kts | 356° |
| 2026-04-21 19:58 | 50.09924 | 22.36608 | 3343 ft | 152 kts | 335° |
| 2026-04-21 19:59 | 50.10636 | 22.35386 | 3210 ft | 167 kts | 290° |
| 2026-04-21 19:59 | 50.10696 | 22.33592 | 2962 ft | 166 kts | 272° |
| 2026-04-21 19:59 | 50.10640 | 22.31849 | 2828 ft | 157 kts | 272° |
| 2026-04-21 19:59 | 50.10582 | 22.30189 | 2682 ft | 154 kts | 274° |
| 2026-04-21 20:00 | 50.10646 | 22.28552 | 2546 ft | 150 kts | 282° |
| 2026-04-21 20:00 | 50.10766 | 22.26972 | 2515 ft | 144 kts | 282° |
| 2026-04-21 20:00 | 50.10810 | 22.25410 | 2459 ft | 146 kts | 276° |
| 2026-04-21 20:00 | 50.10782 | 22.23847 | 2472 ft | 142 kts | 273° |
| 2026-04-21 20:01 | 50.10728 | 22.22327 | 2489 ft | 142 kts | 274° |
| 2026-04-21 20:01 | 50.10687 | 22.20765 | 2468 ft | 145 kts | 274° |
| 2026-04-21 20:01 | 50.10683 | 22.19222 | 2490 ft | 141 kts | 277° |
| 2026-04-21 20:01 | 50.10694 | 22.17693 | 2404 ft | 143 kts | 277° |
| 2026-04-21 20:02 | 50.10724 | 22.16187 | 2187 ft | 141 kts | 278° |
| 2026-04-21 20:02 | 50.10774 | 22.14676 | 1987 ft | 138 kts | 280° |
| 2026-04-21 20:02 | 50.10831 | 22.13195 | 1804 ft | 136 kts | 278° |
| 2026-04-21 20:02 | 50.10854 | 22.11741 | 1659 ft | 135 kts | 275° |
| 2026-04-21 20:03 | 50.10863 | 22.10434 | 1451 ft | 107 kts | 274° |
| 2026-04-21 20:03 | 50.10866 | 22.09323 | 1251 ft | 99 kts | 273° |
| 2026-04-21 20:03 | 50.10879 | 22.08243 | 1147 ft | 101 kts | 275° |
| 2026-04-21 20:03 | 50.10894 | 22.07788 | 1118 ft | 99 kts | 275° |
| 2026-04-21 20:04 | 50.10919 | 22.07000 | 1053 ft | 99 kts | 273° |
| 2026-04-21 20:04 | 50.10942 | 22.05938 | 901 ft | 99 kts | 275° |
| 2026-04-21 20:04 | 50.10960 | 22.04902 | 762 ft | 92 kts | 273° |
| 2026-04-21 20:04 | 50.10975 | 22.03988 | 687 ft | 69 kts | 272° |
| 2026-04-21 20:05 | 50.10981 | 22.03473 | 691 ft | 45 kts | 275° |